Map

Track Data

SID SEASON NUMBER BASIN SUBBASIN NAME ISO_TIME NATURE LAT LON WMO_WIND WMO_PRES WMO_AGENCY TRACK_TYPE DIST2LAND LANDFALL IFLAG USA_AGENCY USA_ATCF_ID USA_LAT USA_LON USA_RECORD USA_STATUS USA_WIND USA_PRES USA_SSHS USA_R34_NE USA_R34_SE USA_R34_SW USA_R34_NW USA_R50_NE USA_R50_SE USA_R50_SW USA_R50_NW USA_R64_NE USA_R64_SE USA_R64_SW USA_R64_NW USA_POCI USA_ROCI USA_RMW USA_EYE TOKYO_LAT TOKYO_LON TOKYO_GRADE TOKYO_WIND TOKYO_PRES TOKYO_R50_DIR TOKYO_R50_LONG TOKYO_R50_SHORT TOKYO_R30_DIR TOKYO_R30_LONG TOKYO_R30_SHORT TOKYO_LAND CMA_LAT CMA_LON CMA_CAT CMA_WIND CMA_PRES HKO_LAT HKO_LON HKO_CAT HKO_WIND HKO_PRES NEWDELHI_LAT NEWDELHI_LON NEWDELHI_GRADE NEWDELHI_WIND NEWDELHI_PRES NEWDELHI_CI NEWDELHI_DP NEWDELHI_POCI REUNION_LAT REUNION_LON REUNION_TYPE REUNION_WIND REUNION_PRES REUNION_TNUM REUNION_CI REUNION_RMW REUNION_R34_NE REUNION_R34_SE REUNION_R34_SW REUNION_R34_NW REUNION_R50_NE REUNION_R50_SE REUNION_R50_SW REUNION_R50_NW REUNION_R64_NE REUNION_R64_SE REUNION_R64_SW REUNION_R64_NW BOM_LAT BOM_LON BOM_TYPE BOM_WIND BOM_PRES BOM_TNUM BOM_CI BOM_RMW BOM_R34_NE BOM_R34_SE BOM_R34_SW BOM_R34_NW BOM_R50_NE BOM_R50_SE BOM_R50_SW BOM_R50_NW BOM_R64_NE BOM_R64_SE BOM_R64_SW BOM_R64_NW BOM_ROCI BOM_POCI BOM_EYE BOM_POS_METHOD BOM_PRES_METHOD NADI_LAT NADI_LON NADI_CAT NADI_WIND NADI_PRES WELLINGTON_LAT WELLINGTON_LON WELLINGTON_WIND WELLINGTON_PRES DS824_LAT DS824_LON DS824_STAGE DS824_WIND DS824_PRES TD9636_LAT TD9636_LON TD9636_STAGE TD9636_WIND TD9636_PRES TD9635_LAT TD9635_LON TD9635_WIND TD9635_PRES TD9635_ROCI NEUMANN_LAT NEUMANN_LON NEUMANN_CLASS NEUMANN_WIND NEUMANN_PRES MLC_LAT MLC_LON MLC_CLASS MLC_WIND MLC_PRES USA_GUST BOM_GUST BOM_GUST_PER REUNION_GUST REUNION_GUST_PER USA_SEAHGT USA_SEARAD_NE USA_SEARAD_SE USA_SEARAD_SW USA_SEARAD_NW STORM_SPEED STORM_DIR
1888216N28129 1888 33 WP MM NOT_NAMED 1888-08-03 04:00:00 NR 28.2000 128.900 main 357 350 __________O___ -1 28.2000 128.900 4 3 310
1888216N28129 1888 33 WP MM NOT_NAMED 1888-08-03 06:00:00 NR 28.2566 128.825 main 350 350 __________P___ -1 28.2566 128.825 4 3 311
1888216N28129 1888 33 WP MM NOT_NAMED 1888-08-03 09:00:00 NR 28.3389 128.715 main 354 344 __________P___ -1 28.3389 128.715 4 2 310
1888216N28129 1888 33 WP MM NOT_NAMED 1888-08-03 12:00:00 NR 28.4149 128.614 main 348 338 __________P___ -1 28.4149 128.614 4 2 310
1888216N28129 1888 33 WP MM NOT_NAMED 1888-08-03 15:00:00 NR 28.4809 128.526 main 342 342 __________P___ -1 28.4809 128.526 4 2 310
1888216N28129 1888 33 WP MM NOT_NAMED 1888-08-03 16:00:00 NR 28.5000 128.500 main 342 342 __________O___ -1 28.5000 128.500 4 2 312
1888216N28129 1888 33 WP MM NOT_NAMED 1888-08-03 18:00:00 NR 28.5337 128.455 main 342 337 __________P___ -1 28.5337 128.455 4 1 309
1888216N28129 1888 33 WP MM NOT_NAMED 1888-08-03 21:00:00 NR 28.5779 128.393 main 337 337 __________P___ -1 28.5779 128.393 4 1 309
1888216N28129 1888 33 WP MM NOT_NAMED 1888-08-04 00:00:00 NR 28.6228 128.326 main 342 333 __________P___ -1 28.6228 128.326 4 2 307
1888216N28129 1888 33 WP MM NOT_NAMED 1888-08-04 03:00:00 NR 28.6778 128.237 main 338 338 __________P___ -1 28.6778 128.237 4 2 304
1888216N28129 1888 33 WP MM NOT_NAMED 1888-08-04 04:00:00 NR 28.7000 128.200 main 338 335 __________O___ -1 28.7000 128.200 4 3 305
1888216N28129 1888 33 WP MM NOT_NAMED 1888-08-04 06:00:00 NR 28.7632 128.104 main 335 332 __________P___ -1 28.7632 128.104 4 3 306
1888216N28129 1888 33 WP MM NOT_NAMED 1888-08-04 09:00:00 NR 28.8707 127.934 main 338 336 __________P___ -1 28.8707 127.934 4 4 305
1888216N28129 1888 33 WP MM NOT_NAMED 1888-08-04 12:00:00 NR 28.9796 127.747 main 343 342 __________P___ -1 28.9796 127.747 4 4 302
1888216N28129 1888 33 WP MM NOT_NAMED 1888-08-04 15:00:00 NR 29.0743 127.560 main 342 349 __________P___ -1 29.0743 127.560 4 4 299
1888216N28129 1888 33 WP MM NOT_NAMED 1888-08-04 16:00:00 NR 29.1000 127.500 main 349 349 __________O___ -1 29.1000 127.500 4 3 293
1888216N28129 1888 33 WP MM NOT_NAMED 1888-08-04 18:00:00 NR 29.1310 127.402 main 356 356 __________P___ -1 29.1310 127.402 4 3 286
1888216N28129 1888 33 WP MM NOT_NAMED 1888-08-04 21:00:00 NR 29.1587 127.262 main 356 356 __________P___ -1 29.1587 127.262 4 3 280
1888216N28129 1888 33 WP MM NOT_NAMED 1888-08-05 00:00:00 NR 29.1748 127.118 main 371 371 __________P___ -1 29.1748 127.118 4 3 277
1888216N28129 1888 33 WP MM NOT_NAMED 1888-08-05 03:00:00 NR 29.1919 126.959 main 379 387 __________P___ -1 29.1919 126.959 4 3 278
1888216N28129 1888 33 WP MM NOT_NAMED 1888-08-05 04:00:00 NR 29.2000 126.900 main 387 387 __________O___ -1 29.2000 126.900 4 3 282
1888216N28129 1888 33 WP MM NOT_NAMED 1888-08-05 06:00:00 NR 29.2277 126.767 main 395 395 __________P___ -1 29.2277 126.767 4 4 284
1888216N28129 1888 33 WP MM NOT_NAMED 1888-08-05 09:00:00 NR 29.2754 126.549 main 413 413 __________P___ -1 29.2754 126.549 4 4 284
1888216N28129 1888 33 WP MM NOT_NAMED 1888-08-05 12:00:00 NR 29.3279 126.316 main 416 397 __________P___ -1 29.3279 126.316 4 4 285
1888216N28129 1888 33 WP MM NOT_NAMED 1888-08-05 15:00:00 NR 29.3821 126.079 main 397 387 __________P___ -1 29.3821 126.079 4 4 285
1888216N28129 1888 33 WP MM NOT_NAMED 1888-08-05 16:00:00 NR 29.4000 126.000 main 387 368 __________O___ -1 29.4000 126.000 4 4 285
1888216N28129 1888 33 WP MM NOT_NAMED 1888-08-05 18:00:00 NR 29.4351 125.845 main 368 350 __________P___ -1 29.4351 125.845 4 4 284
1888216N28129 1888 33 WP MM NOT_NAMED 1888-08-05 21:00:00 NR 29.4861 125.617 main 350 330 __________P___ -1 29.4861 125.617 4 4 284
1888216N28129 1888 33 WP MM NOT_NAMED 1888-08-06 00:00:00 NR 29.5355 125.394 main 330 312 __________P___ -1 29.5355 125.394 4 4 284
1888216N28129 1888 33 WP MM NOT_NAMED 1888-08-06 03:00:00 NR 29.5840 125.173 main 312 303 __________P___ -1 29.5840 125.173 4 4 284
1888216N28129 1888 33 WP MM NOT_NAMED 1888-08-06 04:00:00 NR 29.6000 125.100 main 303 __________O___ -1 29.6000 125.100 4 4 284

Digital Typhoon Data and Search

About IBTrACS Database

This database is a web-friendly format of International Best Track Archive for Climate Stewardship (IBTrACS), a global best track data archive curated by NOAA dating back to 1842.

Updated: 2021-11-26